createdAt,value
2019-04-14T00:00:51.380Z,11.00
2019-04-14T00:01:50.163Z,11.20
2019-04-14T00:02:51.169Z,11.10
2019-04-14T00:03:50.204Z,10.40
2019-04-14T00:04:50.757Z,11.10
2019-04-14T00:05:50.077Z,11.50
2019-04-14T00:06:50.476Z,11.10
2019-04-14T00:07:50.041Z,11.00
2019-04-14T00:08:50.227Z,11.40
2019-04-14T00:09:50.069Z,10.70
2019-04-14T00:10:50.775Z,10.50
2019-04-14T00:11:50.458Z,11.50
2019-04-14T00:12:51.296Z,11.30
2019-04-14T00:13:50.249Z,11.10
2019-04-14T00:14:51.208Z,13.10
2019-04-14T00:15:51.751Z,12.10
2019-04-14T00:16:51.032Z,10.90
2019-04-14T00:17:50.355Z,11.20
2019-04-14T00:18:51.169Z,11.70
2019-04-14T00:19:50.227Z,11.80
2019-04-14T00:20:49.906Z,11.60
2019-04-14T00:21:50.130Z,11.10
2019-04-14T00:22:50.946Z,10.80
2019-04-14T00:23:50.175Z,11.30
2019-04-14T00:24:51.010Z,11.00
2019-04-14T00:25:50.092Z,11.50
2019-04-14T00:26:51.015Z,11.60
2019-04-14T00:27:50.050Z,11.00
2019-04-14T00:28:49.825Z,10.70
2019-04-14T00:29:50.307Z,11.20
2019-04-14T00:30:49.804Z,11.10
2019-04-14T00:31:52.128Z,11.60
2019-04-14T00:32:50.830Z,11.60
2019-04-14T00:33:49.955Z,11.30
2019-04-14T00:34:50.812Z,12.10
2019-04-14T00:35:49.754Z,12.00
2019-04-14T00:36:56.865Z,11.70
2019-04-14T00:38:32.308Z,11.10
2019-04-14T00:39:31.594Z,10.90
2019-04-14T00:41:13.712Z,11.70
2019-04-14T00:42:13.005Z,12.30
2019-04-14T00:43:13.516Z,11.60
2019-04-14T00:44:12.987Z,11.40
2019-04-14T00:45:13.327Z,11.70
2019-04-14T00:46:12.967Z,11.70
2019-04-14T00:47:13.540Z,12.50
2019-04-14T00:48:16.150Z,12.00
2019-04-14T00:49:13.945Z,12.20
2019-04-14T00:50:12.915Z,11.40
2019-04-14T00:51:13.404Z,11.90
2019-04-14T00:52:12.966Z,11.30
2019-04-14T00:53:13.916Z,12.50
2019-04-14T00:54:13.253Z,12.00
2019-04-14T00:55:13.918Z,11.20
2019-04-14T00:56:12.924Z,11.80
2019-04-14T00:57:13.683Z,12.10
2019-04-14T00:58:12.867Z,12.10
2019-04-14T00:59:13.624Z,11.40
2019-04-14T01:00:15.771Z,12.20
2019-04-14T01:01:13.304Z,11.90
2019-04-14T01:02:12.783Z,11.70
2019-04-14T01:03:13.426Z,11.80
2019-04-14T01:04:12.772Z,12.10
2019-04-14T01:05:13.124Z,12.00
2019-04-14T01:06:12.739Z,12.00
2019-04-14T01:07:13.077Z,11.00
2019-04-14T01:08:13.853Z,11.70
2019-04-14T01:09:13.065Z,11.40
2019-04-14T01:10:12.758Z,12.10
2019-04-14T01:11:13.787Z,12.20
2019-04-14T01:12:12.839Z,11.60
2019-04-14T01:13:14.117Z,12.30
2019-04-14T01:14:12.677Z,11.40
2019-04-14T01:15:13.681Z,12.20
2019-04-14T01:16:18.391Z,12.40
2019-04-14T01:17:13.617Z,11.60
2019-04-14T01:18:12.656Z,12.00
2019-04-14T01:19:13.372Z,11.40
2019-04-14T01:20:12.577Z,12.30
2019-04-14T01:21:13.152Z,12.30
2019-04-14T01:22:12.561Z,12.30
2019-04-14T01:23:12.965Z,11.90
2019-04-14T01:24:12.541Z,12.10
2019-04-14T01:25:12.867Z,12.70
2019-04-14T01:26:13.784Z,12.30
2019-04-14T01:27:12.526Z,12.60
2019-04-14T01:28:13.636Z,12.20
2019-04-14T01:29:12.484Z,12.10
2019-04-14T01:30:13.349Z,12.80
2019-04-14T01:31:12.459Z,12.60
2019-04-14T01:32:13.302Z,12.40
2019-04-14T01:33:12.445Z,13.20
2019-04-14T01:34:12.968Z,13.30
2019-04-14T01:35:12.413Z,12.70
2019-04-14T01:36:12.755Z,13.90
2019-04-14T01:37:13.634Z,12.30
2019-04-14T01:38:12.591Z,13.30
2019-04-14T01:39:13.297Z,13.70
2019-04-14T01:40:12.361Z,12.90
2019-04-14T01:41:12.816Z,13.20
2019-04-14T01:42:12.336Z,13.50
2019-04-14T01:43:12.411Z,13.30
2019-04-14T01:44:13.263Z,13.30
2019-04-14T01:45:12.305Z,14.20
2019-04-14T01:46:19.696Z,13.90
2019-04-14T01:47:13.768Z,13.10
2019-04-14T01:48:12.729Z,12.90
2019-04-14T01:49:12.261Z,13.70
2019-04-14T01:50:12.770Z,13.50
2019-04-14T01:51:13.308Z,12.60
2019-04-14T01:52:12.453Z,14.00
2019-04-14T01:53:12.233Z,13.50
2019-04-14T01:54:12.739Z,13.90
2019-04-14T01:55:13.273Z,13.30
2019-04-14T01:56:12.362Z,13.20
2019-04-14T01:57:13.205Z,13.50
2019-04-14T01:58:12.310Z,13.40
2019-04-14T01:59:13.005Z,13.10
2019-04-14T02:00:12.153Z,13.30
2019-04-14T02:01:12.725Z,13.70
2019-04-14T02:02:12.117Z,13.80
2019-04-14T02:03:12.784Z,13.10
2019-04-14T02:04:12.095Z,13.50
2019-04-14T02:05:12.383Z,14.20
2019-04-14T02:06:12.080Z,13.30
2019-04-14T02:07:12.380Z,14.20
2019-04-14T02:08:13.205Z,13.90
2019-04-14T02:09:12.200Z,14.00
2019-04-14T02:10:12.876Z,14.40
2019-04-14T02:11:12.025Z,14.20
2019-04-14T02:12:12.773Z,13.40
2019-04-14T02:13:12.004Z,13.50
2019-04-14T02:14:12.515Z,14.10
2019-04-14T02:15:13.284Z,13.80
2019-04-14T02:16:22.940Z,14.30
2019-04-14T02:17:13.259Z,14.30
2019-04-14T02:18:12.162Z,12.60
2019-04-14T02:19:13.111Z,13.30
2019-04-14T02:20:12.128Z,13.60
2019-04-14T02:21:12.861Z,14.30
2019-04-14T02:22:11.904Z,13.60
2019-04-14T02:23:12.563Z,14.20
2019-04-14T02:24:11.888Z,13.50
2019-04-14T02:25:12.100Z,12.90
2019-04-14T02:26:13.178Z,13.30
2019-04-14T02:27:12.116Z,14.00
2019-04-14T02:28:11.839Z,12.70
2019-04-14T02:29:12.166Z,13.60
2019-04-14T02:30:15.861Z,14.50
2019-04-14T02:31:30.081Z,13.50
2019-04-14T02:33:50.313Z,13.00
2019-04-14T02:34:39.168Z,13.20
2019-04-14T02:36:41.554Z,13.80
2019-04-14T02:37:49.337Z,13.00
2019-04-14T02:39:42.121Z,13.20
2019-04-14T02:41:52.928Z,13.10
2019-04-14T02:42:42.030Z,13.30
2019-04-14T02:43:58.034Z,12.90
2019-04-14T02:44:44.259Z,13.30
2019-04-14T02:45:46.714Z,13.90
2019-04-14T02:47:53.812Z,13.70
2019-04-14T02:48:44.861Z,13.60
2019-04-14T02:51:48.454Z,14.00
2019-04-14T02:52:46.908Z,14.10
2019-04-14T02:55:43.179Z,14.20
2019-04-14T02:56:40.844Z,15.30
2019-04-14T02:57:41.616Z,14.00
2019-04-14T02:59:37.092Z,13.50
2019-04-14T03:00:41.744Z,13.10
2019-04-14T03:01:45.092Z,12.70
2019-04-14T03:02:36.782Z,13.30
2019-04-14T03:03:39.233Z,13.40
2019-04-14T03:04:44.830Z,12.80
2019-04-14T03:05:47.832Z,13.10
2019-04-14T03:06:33.527Z,13.90
2019-04-14T03:07:38.224Z,15.00
2019-04-14T03:08:45.710Z,16.10
2019-04-14T03:11:44.518Z,14.80
2019-04-14T03:12:38.459Z,15.10
2019-04-14T03:13:45.077Z,13.40
2019-04-14T03:14:39.438Z,13.60
2019-04-14T03:15:39.711Z,13.10
2019-04-14T03:16:43.778Z,14.70
2019-04-14T03:17:43.331Z,14.80
2019-04-14T03:18:39.516Z,12.90
2019-04-14T03:19:43.950Z,13.80
2019-04-14T03:20:32.323Z,13.20
2019-04-14T03:21:34.688Z,13.00
2019-04-14T03:22:51.819Z,12.10
2019-04-14T03:23:46.378Z,12.60
2019-04-14T03:24:34.142Z,11.90
2019-04-14T03:25:29.637Z,12.70
2019-04-14T03:26:38.800Z,12.50
2019-04-14T03:27:45.801Z,13.00
2019-04-14T03:28:38.688Z,12.10
2019-04-14T03:29:37.181Z,12.50
2019-04-14T03:30:57.620Z,12.80
2019-04-14T03:34:11.088Z,12.90
2019-04-14T03:34:43.522Z,13.80
2019-04-14T03:37:45.591Z,12.00
2019-04-14T03:38:37.012Z,12.50
2019-04-14T03:39:40.533Z,11.80
2019-04-14T03:41:40.919Z,12.20
2019-04-14T03:42:49.310Z,13.00
2019-04-14T03:44:41.397Z,12.10
2019-04-14T03:45:46.793Z,12.70
2019-04-14T03:46:41.616Z,12.20
2019-04-14T03:47:31.439Z,12.70
2019-04-14T03:49:42.910Z,12.40
2019-04-14T03:50:39.349Z,11.60
2019-04-14T03:53:34.682Z,12.40
2019-04-14T03:54:33.163Z,12.30
2019-04-14T03:55:25.096Z,12.40
2019-04-14T03:56:14.403Z,12.80
2019-04-14T03:57:10.857Z,12.10
2019-04-14T03:58:13.048Z,12.80
2019-04-14T03:59:10.842Z,12.70
2019-04-14T04:00:11.722Z,13.00
2019-04-14T04:01:10.814Z,12.40
2019-04-14T04:02:11.799Z,13.20
2019-04-14T04:03:10.792Z,12.30
2019-04-14T04:04:11.844Z,13.00
2019-04-14T04:05:10.774Z,12.70
2019-04-14T04:06:11.800Z,13.10
2019-04-14T04:07:10.751Z,13.40
2019-04-14T04:08:11.479Z,13.00
2019-04-14T04:09:10.732Z,13.50
2019-04-14T04:10:11.438Z,12.80
2019-04-14T04:11:10.715Z,12.50
2019-04-14T04:12:11.693Z,12.70
2019-04-14T04:13:10.686Z,12.00
2019-04-14T04:14:11.722Z,13.00
2019-04-14T04:15:10.663Z,12.40
2019-04-14T04:16:11.535Z,12.20
2019-04-14T04:17:10.642Z,12.70
2019-04-14T04:18:11.311Z,11.90
2019-04-14T04:19:13.589Z,12.40
2019-04-14T04:20:11.034Z,12.00
2019-04-14T04:21:11.655Z,12.70
2019-04-14T04:22:10.655Z,12.80
2019-04-14T04:23:11.737Z,13.00
2019-04-14T04:24:10.779Z,13.40
2019-04-14T04:25:11.583Z,13.50
2019-04-14T04:26:10.540Z,12.20
2019-04-14T04:27:11.096Z,12.80
2019-04-14T04:28:10.531Z,12.90
2019-04-14T04:29:11.211Z,14.00
2019-04-14T04:30:10.498Z,13.10
2019-04-14T04:31:10.994Z,13.50
2019-04-14T04:32:10.471Z,13.80
2019-04-14T04:33:10.918Z,13.70
2019-04-14T04:34:10.447Z,12.60
2019-04-14T04:35:10.783Z,13.50
2019-04-14T04:36:11.691Z,13.70
2019-04-14T04:37:10.448Z,12.70
2019-04-14T04:38:11.642Z,12.70
2019-04-14T04:39:10.396Z,13.00
2019-04-14T04:40:11.451Z,13.10
2019-04-14T04:41:10.373Z,13.70
2019-04-14T04:42:11.252Z,13.10
2019-04-14T04:43:10.404Z,13.50
2019-04-14T04:44:11.489Z,13.70
2019-04-14T04:45:10.441Z,13.70
2019-04-14T04:46:11.323Z,13.20
2019-04-14T04:47:10.311Z,12.90
2019-04-14T04:48:10.915Z,13.10
2019-04-14T04:49:16.494Z,13.10
2019-04-14T04:50:11.274Z,12.80
2019-04-14T04:51:10.264Z,12.40
2019-04-14T04:52:12.651Z,12.70
2019-04-14T04:53:11.269Z,13.60
2019-04-14T04:54:10.351Z,13.10
2019-04-14T04:55:11.248Z,13.90
2019-04-14T04:56:10.212Z,13.50
2019-04-14T04:57:11.270Z,13.00
2019-04-14T04:58:10.186Z,13.30
2019-04-14T04:59:10.185Z,12.60
2019-04-14T05:00:11.311Z,12.90
2019-04-14T05:01:10.157Z,13.30
2019-04-14T05:02:11.256Z,13.40
2019-04-14T05:03:10.133Z,12.80
2019-04-14T05:04:11.097Z,12.80
2019-04-14T05:05:10.109Z,12.60
2019-04-14T05:06:11.251Z,12.90
2019-04-14T05:07:10.091Z,13.10
2019-04-14T05:08:10.847Z,13.60
2019-04-14T05:09:10.080Z,13.20
2019-04-14T05:10:10.986Z,13.40
2019-04-14T05:11:10.047Z,12.90
2019-04-14T05:12:11.009Z,12.40
2019-04-14T05:13:10.025Z,13.50
2019-04-14T05:14:10.910Z,13.80
2019-04-14T05:15:10.001Z,13.20
2019-04-14T05:16:10.692Z,12.70
2019-04-14T05:17:10.221Z,13.10
2019-04-14T05:18:11.210Z,13.30
2019-04-14T05:19:18.548Z,13.30
2019-04-14T05:20:11.620Z,13.40
2019-04-14T05:21:10.386Z,14.00
2019-04-14T05:22:09.927Z,13.10
2019-04-14T05:23:10.208Z,12.80
2019-04-14T05:24:09.905Z,13.60
2019-04-14T05:25:10.129Z,13.10
2019-04-14T05:26:09.877Z,12.40
2019-04-14T05:27:10.034Z,13.30
2019-04-14T05:28:11.169Z,13.00
2019-04-14T05:29:10.039Z,13.00
2019-04-14T05:30:11.058Z,12.80
2019-04-14T05:31:09.875Z,12.60
2019-04-14T05:32:10.862Z,13.50
2019-04-14T05:33:09.805Z,12.60
2019-04-14T05:34:10.773Z,12.70
2019-04-14T05:35:09.802Z,13.10
2019-04-14T05:36:10.674Z,12.60
2019-04-14T05:37:09.757Z,13.40
2019-04-14T05:38:10.524Z,13.70
2019-04-14T05:39:09.744Z,13.40
2019-04-14T05:40:10.318Z,12.90
2019-04-14T05:41:09.717Z,12.60
2019-04-14T05:42:14.851Z,12.50
2019-04-14T05:43:11.357Z,12.20
2019-04-14T05:44:09.986Z,12.60
2019-04-14T05:45:09.671Z,12.00
2019-04-14T05:46:09.947Z,12.60
2019-04-14T05:47:09.660Z,13.20
2019-04-14T05:48:09.806Z,13.10
2019-04-14T05:49:09.985Z,11.80
2019-04-14T05:50:09.643Z,12.20
2019-04-14T05:51:10.906Z,12.60
2019-04-14T05:52:09.912Z,11.40
2019-04-14T05:53:09.585Z,11.10
2019-04-14T05:54:09.973Z,11.30
2019-04-14T05:55:09.567Z,11.70
2019-04-14T05:56:09.954Z,11.50
2019-04-14T05:57:09.541Z,11.70
2019-04-14T05:58:10.028Z,10.90
2019-04-14T05:59:09.530Z,11.40
2019-04-14T06:00:10.345Z,10.70
2019-04-14T06:01:09.496Z,11.00
2019-04-14T06:02:09.484Z,11.80
2019-04-14T06:03:10.319Z,10.90
2019-04-14T06:04:09.463Z,10.80
2019-04-14T06:05:11.289Z,10.20
2019-04-14T06:06:09.437Z,10.60
2019-04-14T06:07:09.431Z,9.90
2019-04-14T06:08:09.419Z,10.30
2019-04-14T06:09:09.401Z,9.70
2019-04-14T06:10:09.395Z,9.80
2019-04-14T06:11:09.387Z,10.20
2019-04-14T06:12:09.378Z,9.80
2019-04-14T06:13:11.673Z,10.00
2019-04-14T06:14:09.352Z,9.20
2019-04-14T06:15:09.345Z,9.50
2019-04-14T06:16:09.337Z,9.60
2019-04-14T06:17:09.320Z,9.20
2019-04-14T06:18:09.313Z,9.10
2019-04-14T06:19:09.299Z,9.60
2019-04-14T06:20:09.292Z,9.40
2019-04-14T06:21:09.276Z,9.20
2019-04-14T06:22:09.266Z,9.30
2019-04-14T06:23:09.261Z,9.00
2019-04-14T06:24:09.241Z,8.80
2019-04-14T06:25:09.239Z,8.50
2019-04-14T06:26:09.221Z,8.50
2019-04-14T06:27:09.217Z,8.80
2019-04-14T06:28:09.197Z,9.00
2019-04-14T06:29:09.197Z,9.60
2019-04-14T06:30:09.177Z,8.70
2019-04-14T06:31:09.171Z,9.40
2019-04-14T06:32:09.155Z,10.10
2019-04-14T06:33:09.150Z,9.30
2019-04-14T06:34:09.133Z,9.50
2019-04-14T06:35:09.135Z,9.50
2019-04-14T06:36:09.111Z,9.50
2019-04-14T06:37:09.096Z,9.10
2019-04-14T06:38:09.095Z,9.70
2019-04-14T06:39:09.080Z,9.70
2019-04-14T06:40:09.076Z,9.10
2019-04-14T06:41:09.055Z,9.00
2019-04-14T06:42:09.047Z,9.40
2019-04-14T06:43:11.633Z,10.20
2019-04-14T06:44:09.025Z,9.50
2019-04-14T06:45:09.014Z,10.20
2019-04-14T06:46:09.003Z,9.90
2019-04-14T06:47:08.986Z,9.90
2019-04-14T06:48:08.976Z,10.00
2019-04-14T06:49:08.972Z,10.20
2019-04-14T06:50:08.957Z,9.70
2019-04-14T06:51:08.953Z,9.80
2019-04-14T06:52:08.935Z,9.60
2019-04-14T06:53:08.922Z,9.80
2019-04-14T06:54:08.911Z,9.80
2019-04-14T06:55:08.902Z,10.90
2019-04-14T06:56:08.894Z,9.60
2019-04-14T06:57:08.882Z,10.10
2019-04-14T06:58:08.873Z,10.30
2019-04-14T06:59:08.868Z,10.40
2019-04-14T07:00:08.852Z,9.80
2019-04-14T07:01:08.838Z,11.80
2019-04-14T07:02:08.827Z,10.40
2019-04-14T07:03:08.817Z,10.30
2019-04-14T07:04:08.805Z,10.40
2019-04-14T07:05:08.789Z,10.10
2019-04-14T07:06:08.784Z,10.40
2019-04-14T07:07:08.776Z,11.30
2019-04-14T07:08:08.766Z,10.50
2019-04-14T07:09:08.746Z,11.90
2019-04-14T07:10:08.740Z,10.90
2019-04-14T07:11:08.731Z,11.00
2019-04-14T07:12:08.831Z,11.30
2019-04-14T07:13:08.705Z,10.70
2019-04-14T07:14:08.705Z,10.90
2019-04-14T07:15:08.683Z,12.10
2019-04-14T07:16:08.671Z,11.30
2019-04-14T07:17:08.662Z,11.90
2019-04-14T07:18:08.659Z,11.30
2019-04-14T07:19:08.647Z,11.30
2019-04-14T07:20:08.631Z,11.10
2019-04-14T07:21:08.616Z,11.60
2019-04-14T07:22:08.611Z,12.00
2019-04-14T07:23:08.592Z,12.70
2019-04-14T07:24:08.586Z,12.30
2019-04-14T07:25:08.573Z,12.50
2019-04-14T07:26:08.566Z,11.40
2019-04-14T07:27:08.552Z,11.40
2019-04-14T07:28:08.536Z,11.60
2019-04-14T07:29:08.528Z,11.90
2019-04-14T07:30:08.518Z,12.20
2019-04-14T07:31:08.514Z,12.40
2019-04-14T07:32:08.500Z,12.50
2019-04-14T07:33:08.491Z,12.30
2019-04-14T07:34:08.472Z,12.80
2019-04-14T07:35:08.466Z,11.80
2019-04-14T07:36:08.462Z,12.50
2019-04-14T07:37:08.463Z,12.40
2019-04-14T07:38:08.431Z,12.40
2019-04-14T07:39:08.416Z,12.90
2019-04-14T07:40:08.410Z,13.30
2019-04-14T07:41:08.396Z,12.50
2019-04-14T07:42:08.388Z,12.40
2019-04-14T07:43:08.373Z,12.20
2019-04-14T07:44:08.370Z,13.40
2019-04-14T07:45:08.356Z,13.40
2019-04-14T07:46:08.347Z,13.30
2019-04-14T07:47:08.332Z,12.60
2019-04-14T07:48:08.316Z,12.80
2019-04-14T07:49:08.313Z,13.20
2019-04-14T07:50:14.484Z,12.50
2019-04-14T07:51:09.290Z,13.90
2019-04-14T07:52:08.275Z,12.80
2019-04-14T07:53:08.268Z,13.80
2019-04-14T07:54:08.256Z,13.50
2019-04-14T07:55:08.283Z,12.70
2019-04-14T07:56:08.239Z,13.80
2019-04-14T07:57:08.229Z,13.20
2019-04-14T07:58:08.205Z,13.40
2019-04-14T07:59:08.204Z,13.10
2019-04-14T08:00:08.188Z,13.60
2019-04-14T08:01:08.182Z,13.40
2019-04-14T08:02:08.163Z,13.40
2019-04-14T08:03:08.157Z,13.80
2019-04-14T08:04:08.142Z,13.20
2019-04-14T08:05:08.137Z,13.60
2019-04-14T08:06:08.122Z,13.10
2019-04-14T08:07:08.115Z,13.60
2019-04-14T08:08:08.113Z,13.20
2019-04-14T08:09:08.090Z,13.30
2019-04-14T08:10:08.108Z,13.10
2019-04-14T08:11:08.089Z,13.60
2019-04-14T08:12:08.059Z,13.40
2019-04-14T08:13:08.045Z,13.50
2019-04-14T08:14:08.038Z,13.90
2019-04-14T08:15:08.112Z,12.90
2019-04-14T08:16:08.011Z,13.70
2019-04-14T08:17:08.001Z,13.90
2019-04-14T08:18:07.992Z,13.80
2019-04-14T08:19:08.001Z,14.20
2019-04-14T08:20:07.973Z,13.70
2019-04-14T08:21:07.958Z,13.80
2019-04-14T08:22:07.956Z,14.60
2019-04-14T08:23:07.940Z,14.50
2019-04-14T08:24:07.924Z,15.20
2019-04-14T08:25:07.921Z,14.00
2019-04-14T08:26:07.908Z,13.60
2019-04-14T08:27:07.892Z,14.00
2019-04-14T08:28:07.885Z,15.00
2019-04-14T08:29:07.875Z,14.70
2019-04-14T08:30:07.870Z,14.60
2019-04-14T08:31:07.850Z,14.70
2019-04-14T08:32:07.838Z,13.80
2019-04-14T08:33:07.825Z,15.50
2019-04-14T08:34:07.836Z,14.80
2019-04-14T08:35:07.866Z,15.40
2019-04-14T08:36:07.795Z,14.70
2019-04-14T08:37:07.782Z,16.10
2019-04-14T08:38:07.769Z,15.30
2019-04-14T08:39:07.758Z,14.90
2019-04-14T08:40:07.750Z,14.60
2019-04-14T08:41:07.750Z,15.00
2019-04-14T08:42:07.728Z,15.50
2019-04-14T08:43:07.727Z,15.00
2019-04-14T08:44:07.710Z,15.40
2019-04-14T08:45:07.699Z,16.40
2019-04-14T08:46:07.686Z,15.70
2019-04-14T08:47:07.675Z,15.30
2019-04-14T08:48:07.658Z,16.50
2019-04-14T08:49:07.648Z,16.50
2019-04-14T08:50:07.646Z,14.50
2019-04-14T08:51:07.631Z,16.20
2019-04-14T08:52:07.650Z,15.30
2019-04-14T08:53:07.604Z,15.10
2019-04-14T08:54:07.600Z,15.00
2019-04-14T08:55:07.576Z,15.70
2019-04-14T08:56:07.577Z,15.60
2019-04-14T08:57:07.560Z,15.90
2019-04-14T08:58:07.550Z,15.70
2019-04-14T08:59:07.560Z,15.30
2019-04-14T09:00:07.529Z,15.70
2019-04-14T09:01:07.521Z,15.50
2019-04-14T09:02:07.509Z,15.60
2019-04-14T09:03:07.506Z,14.90
2019-04-14T09:04:07.540Z,15.80
2019-04-14T09:05:07.479Z,15.60
2019-04-14T09:06:07.461Z,15.00
2019-04-14T09:07:07.454Z,15.80
2019-04-14T09:08:07.444Z,16.10
2019-04-14T09:09:07.561Z,16.00
2019-04-14T09:10:07.411Z,17.10
2019-04-14T09:11:07.429Z,16.40
2019-04-14T09:12:15.513Z,16.70
2019-04-14T09:13:08.377Z,16.20
2019-04-14T09:14:07.365Z,15.10
2019-04-14T09:15:07.361Z,16.20
2019-04-14T09:16:07.349Z,15.30
2019-04-14T09:17:07.337Z,16.50
2019-04-14T09:18:07.324Z,16.00
2019-04-14T09:19:08.106Z,15.20
2019-04-14T09:20:07.301Z,15.10
2019-04-14T09:21:07.289Z,15.00
2019-04-14T09:22:07.281Z,16.10
2019-04-14T09:23:07.266Z,15.80
2019-04-14T09:24:07.270Z,16.20
2019-04-14T09:25:07.243Z,15.80
2019-04-14T09:26:07.235Z,15.60
2019-04-14T09:27:07.228Z,16.40
2019-04-14T09:28:07.217Z,15.30
2019-04-14T09:29:07.200Z,15.90
2019-04-14T09:30:07.195Z,16.20
2019-04-14T09:31:07.178Z,16.40
2019-04-14T09:32:07.174Z,16.50
2019-04-14T09:33:07.157Z,15.40
2019-04-14T09:34:07.145Z,16.00
2019-04-14T09:35:07.142Z,15.80
2019-04-14T09:36:07.168Z,16.10
2019-04-14T09:37:07.111Z,16.60
2019-04-14T09:38:07.100Z,15.90
2019-04-14T09:39:07.133Z,16.10
2019-04-14T09:40:07.087Z,15.80
2019-04-14T09:41:07.097Z,15.00
2019-04-14T09:42:07.058Z,15.80
2019-04-14T09:43:07.046Z,15.30
2019-04-14T09:44:07.032Z,15.20
2019-04-14T09:45:07.028Z,15.90
2019-04-14T09:46:07.018Z,14.40
2019-04-14T09:47:07.002Z,15.60
2019-04-14T09:48:06.988Z,15.60
2019-04-14T09:49:06.976Z,15.40
2019-04-14T09:50:06.980Z,15.70
2019-04-14T09:51:06.958Z,15.80
2019-04-14T09:52:06.947Z,14.70
2019-04-14T09:53:06.939Z,15.70
2019-04-14T09:54:06.926Z,16.60
2019-04-14T09:55:06.913Z,15.60
2019-04-14T09:56:06.897Z,15.80
2019-04-14T09:57:06.900Z,15.80
2019-04-14T09:58:06.879Z,15.60
2019-04-14T09:59:06.864Z,15.10
2019-04-14T10:00:06.859Z,15.20
2019-04-14T10:01:09.056Z,15.20
2019-04-14T10:02:06.883Z,16.20
2019-04-14T10:03:06.820Z,15.60
2019-04-14T10:04:06.870Z,14.20
2019-04-14T10:05:06.799Z,14.70
2019-04-14T10:06:06.795Z,16.00
2019-04-14T10:07:06.777Z,15.40
2019-04-14T10:08:06.771Z,14.70
2019-04-14T10:09:06.753Z,15.50
2019-04-14T10:10:06.739Z,16.10
2019-04-14T10:11:06.744Z,15.40
2019-04-14T10:12:06.726Z,15.20
2019-04-14T10:13:06.717Z,15.80
2019-04-14T10:14:06.696Z,14.50
2019-04-14T10:15:06.691Z,14.30
2019-04-14T10:16:06.673Z,15.40
2019-04-14T10:17:06.666Z,15.20
2019-04-14T10:18:06.653Z,15.60
2019-04-14T10:19:06.642Z,15.80
2019-04-14T10:20:06.627Z,15.80
2019-04-14T10:21:16.797Z,15.70
2019-04-14T10:22:07.614Z,15.50
2019-04-14T10:23:06.599Z,15.00
2019-04-14T10:24:06.587Z,16.40
2019-04-14T10:25:06.579Z,14.90
2019-04-14T10:26:06.564Z,17.10
2019-04-14T10:27:06.559Z,14.80
2019-04-14T10:28:06.539Z,15.70
2019-04-14T10:29:06.533Z,15.10
2019-04-14T10:30:06.519Z,15.50
2019-04-14T10:31:06.509Z,15.40
2019-04-14T10:32:06.497Z,15.30
2019-04-14T10:33:06.482Z,15.00
2019-04-14T10:34:06.473Z,15.20
2019-04-14T10:35:06.472Z,15.30
2019-04-14T10:36:06.458Z,15.60
2019-04-14T10:37:06.453Z,16.30
2019-04-14T10:38:06.429Z,17.10
2019-04-14T10:39:06.417Z,16.80
2019-04-14T10:40:06.414Z,16.00
2019-04-14T10:41:06.412Z,15.70
2019-04-14T10:42:06.395Z,14.80
2019-04-14T10:43:06.375Z,15.70
2019-04-14T10:44:06.369Z,15.80
2019-04-14T10:45:06.353Z,15.30
2019-04-14T10:46:06.406Z,15.20
2019-04-14T10:47:06.330Z,15.50
2019-04-14T10:48:06.344Z,15.10
2019-04-14T10:49:06.305Z,15.90
2019-04-14T10:50:06.301Z,15.80
2019-04-14T10:51:06.285Z,15.20
2019-04-14T10:52:06.359Z,15.80
2019-04-14T10:53:06.263Z,15.70
2019-04-14T10:54:06.249Z,15.80
2019-04-14T10:55:06.250Z,14.90
2019-04-14T10:56:06.229Z,16.00
2019-04-14T10:57:06.221Z,15.40
2019-04-14T10:58:06.211Z,16.30
2019-04-14T10:59:06.195Z,15.80
2019-04-14T11:00:06.183Z,16.00
2019-04-14T11:01:06.175Z,15.30
2019-04-14T11:02:06.171Z,14.50
2019-04-14T11:03:06.151Z,15.30
2019-04-14T11:04:08.006Z,17.00
2019-04-14T11:05:06.128Z,16.50
2019-04-14T11:06:06.129Z,15.50
2019-04-14T11:07:06.113Z,16.40
2019-04-14T11:08:06.098Z,16.50
2019-04-14T11:09:06.083Z,16.00
2019-04-14T11:10:06.067Z,16.80
2019-04-14T11:11:06.065Z,14.60
2019-04-14T11:12:06.046Z,15.80
2019-04-14T11:13:06.038Z,14.80
2019-04-14T11:14:06.025Z,15.20
2019-04-14T11:15:06.018Z,16.10
2019-04-14T11:16:06.012Z,15.10
2019-04-14T11:17:06.003Z,16.00
2019-04-14T11:18:05.995Z,16.00
2019-04-14T11:19:05.966Z,16.10
2019-04-14T11:20:05.961Z,15.60
2019-04-14T11:21:05.949Z,14.60
2019-04-14T11:22:05.948Z,15.00
2019-04-14T11:23:05.945Z,15.00
2019-04-14T11:24:05.932Z,15.00
2019-04-14T11:25:05.913Z,15.50
2019-04-14T11:26:05.914Z,15.30
2019-04-14T11:27:05.888Z,15.50
2019-04-14T11:28:05.873Z,15.30
2019-04-14T11:29:05.866Z,14.50
2019-04-14T11:30:05.853Z,14.60
2019-04-14T11:31:05.850Z,15.50
2019-04-14T11:32:05.836Z,15.80
2019-04-14T11:33:05.815Z,15.90
2019-04-14T11:34:05.808Z,14.80
2019-04-14T11:35:05.795Z,14.50
2019-04-14T11:36:05.791Z,14.00
2019-04-14T11:37:05.772Z,15.40
2019-04-14T11:38:05.778Z,14.90
2019-04-14T11:39:05.751Z,14.70
2019-04-14T11:40:05.746Z,15.10
2019-04-14T11:41:05.763Z,14.90
2019-04-14T11:42:05.723Z,14.90
2019-04-14T11:43:05.713Z,15.10
2019-04-14T11:44:05.693Z,15.70
2019-04-14T11:45:05.699Z,15.00
2019-04-14T11:46:05.689Z,15.10
2019-04-14T11:47:05.687Z,15.00
2019-04-14T11:48:05.656Z,14.60
2019-04-14T11:49:05.658Z,15.90
2019-04-14T11:50:05.642Z,14.40
2019-04-14T11:51:05.627Z,14.30
2019-04-14T11:52:05.605Z,14.50
2019-04-14T11:53:05.613Z,15.20
2019-04-14T11:54:05.592Z,15.10
2019-04-14T11:55:05.579Z,14.70
2019-04-14T11:56:05.563Z,14.50
2019-04-14T11:57:05.554Z,13.90
2019-04-14T11:58:05.546Z,14.50
2019-04-14T11:59:05.524Z,15.50
2019-04-14T12:00:05.527Z,14.50
2019-04-14T12:01:05.512Z,14.80
2019-04-14T12:02:05.507Z,14.50
2019-04-14T12:03:05.485Z,14.10
2019-04-14T12:04:05.484Z,13.80
2019-04-14T12:05:05.477Z,15.20
2019-04-14T12:06:05.467Z,14.60
2019-04-14T12:07:05.452Z,13.70
2019-04-14T12:08:05.439Z,13.40
2019-04-14T12:09:05.414Z,14.00
2019-04-14T12:10:05.411Z,13.10
2019-04-14T12:11:05.403Z,14.40
2019-04-14T12:12:05.387Z,14.60
2019-04-14T12:13:05.379Z,13.90
2019-04-14T12:14:05.367Z,13.60
2019-04-14T12:15:07.623Z,13.90
2019-04-14T12:16:05.340Z,13.90
2019-04-14T12:17:05.327Z,13.80
2019-04-14T12:18:05.320Z,14.40
2019-04-14T12:19:05.315Z,14.00
2019-04-14T12:20:05.295Z,14.60
2019-04-14T12:21:05.296Z,14.50
2019-04-14T12:22:08.399Z,14.30
2019-04-14T12:23:05.265Z,12.80
2019-04-14T12:24:05.249Z,14.00
2019-04-14T12:25:05.252Z,14.50
2019-04-14T12:26:06.047Z,13.60
2019-04-14T12:27:05.220Z,14.70
2019-04-14T12:28:05.215Z,13.80
2019-04-14T12:29:06.319Z,14.40
2019-04-14T12:30:06.422Z,13.10
2019-04-14T12:31:06.409Z,14.20
2019-04-14T12:32:06.281Z,14.00
2019-04-14T12:33:05.157Z,14.10
2019-04-14T12:34:05.140Z,13.00
2019-04-14T12:35:05.136Z,13.30
2019-04-14T12:36:05.124Z,13.70
2019-04-14T12:37:05.107Z,13.70
2019-04-14T12:38:05.094Z,12.90
2019-04-14T12:39:05.086Z,13.30
2019-04-14T12:40:05.089Z,14.70
2019-04-14T12:41:06.145Z,13.70
2019-04-14T12:42:05.058Z,12.90
2019-04-14T12:43:05.035Z,12.90
2019-04-14T12:44:05.029Z,13.30
2019-04-14T12:45:05.035Z,13.30
2019-04-14T12:46:06.359Z,12.80
2019-04-14T12:47:04.992Z,13.00
2019-04-14T12:48:04.982Z,12.70
2019-04-14T12:49:04.976Z,13.50
2019-04-14T12:50:04.964Z,13.20
2019-04-14T12:51:04.958Z,15.20
2019-04-14T12:52:04.955Z,15.10
2019-04-14T12:53:04.929Z,14.50
2019-04-14T12:54:04.918Z,13.40
2019-04-14T12:55:04.911Z,13.40
2019-04-14T12:56:04.894Z,13.80
2019-04-14T12:57:04.931Z,13.30
2019-04-14T12:58:04.870Z,13.30
2019-04-14T12:59:04.860Z,14.10
2019-04-14T13:00:04.846Z,12.90
2019-04-14T13:01:04.869Z,13.60
2019-04-14T13:02:04.825Z,13.10
2019-04-14T13:03:04.823Z,13.20
2019-04-14T13:04:04.810Z,12.90
2019-04-14T13:05:04.787Z,13.30
2019-04-14T13:06:04.786Z,13.00
2019-04-14T13:07:04.778Z,12.80
2019-04-14T13:08:04.769Z,13.40
2019-04-14T13:09:04.759Z,12.80
2019-04-14T13:10:04.749Z,12.40
2019-04-14T13:11:04.723Z,12.60
2019-04-14T13:12:04.720Z,11.80
2019-04-14T13:13:04.714Z,12.30
2019-04-14T13:14:04.694Z,12.00
2019-04-14T13:15:04.684Z,11.70
2019-04-14T13:16:04.672Z,12.60
2019-04-14T13:17:04.670Z,12.00